Capitol Logistics 362


KPDX
Portland International Airport
Portland, Oregon, US
KSEA
Seattle-Tacoma International Airport
Seattle, Washington, US

Activity Log

Date Flight Route Aircraft Duration
10/06/2020 CPX362 COUGA KRIEG HAWKZ7 B763 0h 38m
08/26/2020 CPX362 COUGA KRIEG HAWKZ7 B763 1h 10m
06/19/2019 CPX362 COUGA KRIEG HAWKZ7 B763 0h 43m
03/21/2019 CPX362 COUGA KRIEG HAWKZ7 B763 0h 39m
03/06/2019 CPX362 COUGA KRIEG HAWKZ7 B763 0h 40m
01/31/2019 CPX362 COUGA KRIEG HAWKZ7 B763 0h 47m
01/31/2019 CPX362 COUGA KRIEG HAWKZ7 B763 0h 43m
01/28/2019 CPX362 COUGA KRIEG HAWKZ7 B763 0h 41m

Route Details

Aircraft Information
Primary: Boeing 767-300BDSF
Backup: Not Available
Route Data
Distance: 112nm
Sched. Duration: 1h 00m
Avg. Duration: 0h 50m (-50m)
Times Flown: 8
Recm'd Route: COUGA KRIEG HAWKZ7
Planned Altitude: 20,000ft
Origin Wx: KPDX 191753Z 31005KT 10SM SCT200 BKN250 04/02 A3049 RMK AO2 SLP324 I6001 T00440017 10044 21006 55005
Dest. Wx: KSEA 191753Z 14004KT 1/4SM R16L/1000V3500FT FG VV001 03/03 A3046 RMK AO2 SLP326 T00280028 10033 20011 56005
Notes:

Financial History
Total Freight: 802,521lbs
Average Load: 100,315lbs/flt
Fuel Used: 63,875lbs
Avg. Fuel Used: 7,984lbs/flt
Fuel Expense: $55,571
Avg. Fuel Expense: $6,946
Avg. Fuel Cost: $0.87/lbs
Total Gross Income: $1,022,971
Pilot Pay: $1,712
Total Expenses: $110,897
Total Revenue: $855,225
Average Revenue: $127,871.39